sensor_id;sensor_type;location;lat;lon;timestamp;temperature;humidity
947;DHT22;460;48.734;9.152;2023-07-20T00:01:48;18.40;68.00
947;DHT22;460;48.734;9.152;2023-07-20T00:04:14;18.40;68.30
947;DHT22;460;48.734;9.152;2023-07-20T00:06:41;18.40;66.90
947;DHT22;460;48.734;9.152;2023-07-20T00:09:08;18.40;66.70
947;DHT22;460;48.734;9.152;2023-07-20T00:11:36;18.40;68.50
947;DHT22;460;48.734;9.152;2023-07-20T00:14:04;18.40;67.50
947;DHT22;460;48.734;9.152;2023-07-20T00:16:32;18.40;67.60
947;DHT22;460;48.734;9.152;2023-07-20T00:18:59;18.30;67.10
947;DHT22;460;48.734;9.152;2023-07-20T00:21:26;18.30;67.20
947;DHT22;460;48.734;9.152;2023-07-20T00:23:53;18.30;67.80
947;DHT22;460;48.734;9.152;2023-07-20T00:26:19;18.30;68.50
947;DHT22;460;48.734;9.152;2023-07-20T00:28:46;18.20;67.90
947;DHT22;460;48.734;9.152;2023-07-20T00:31:13;18.10;69.20
947;DHT22;460;48.734;9.152;2023-07-20T00:33:41;18.00;69.70
947;DHT22;460;48.734;9.152;2023-07-20T00:36:08;17.90;69.60
947;DHT22;460;48.734;9.152;2023-07-20T00:38:35;17.80;70.00
947;DHT22;460;48.734;9.152;2023-07-20T00:41:01;17.80;70.50
947;DHT22;460;48.734;9.152;2023-07-20T00:43:28;17.70;69.90
947;DHT22;460;48.734;9.152;2023-07-20T00:45:55;17.70;70.40
947;DHT22;460;48.734;9.152;2023-07-20T00:48:22;17.70;70.30
947;DHT22;460;48.734;9.152;2023-07-20T00:50:51;17.60;69.70
947;DHT22;460;48.734;9.152;2023-07-20T00:53:17;17.40;69.90
947;DHT22;460;48.734;9.152;2023-07-20T00:55:45;17.50;70.90
947;DHT22;460;48.734;9.152;2023-07-20T00:58:12;17.30;70.20
947;DHT22;460;48.734;9.152;2023-07-20T01:00:38;17.20;70.90
947;DHT22;460;48.734;9.152;2023-07-20T01:03:05;17.20;71.70
947;DHT22;460;48.734;9.152;2023-07-20T01:05:38;17.30;71.10
947;DHT22;460;48.734;9.152;2023-07-20T01:08:13;17.40;70.70
947;DHT22;460;48.734;9.152;2023-07-20T01:10:45;17.40;71.00
947;DHT22;460;48.734;9.152;2023-07-20T01:13:14;17.20;73.70
947;DHT22;460;48.734;9.152;2023-07-20T01:15:42;17.10;72.90
947;DHT22;460;48.734;9.152;2023-07-20T01:18:09;17.10;73.70
947;DHT22;460;48.734;9.152;2023-07-20T01:20:37;17.00;73.30
947;DHT22;460;48.734;9.152;2023-07-20T01:23:34;16.80;73.70
947;DHT22;460;48.734;9.152;2023-07-20T01:26:25;16.90;75.10
947;DHT22;460;48.734;9.152;2023-07-20T01:29:15;16.80;74.00
947;DHT22;460;48.734;9.152;2023-07-20T01:31:47;16.70;75.30
947;DHT22;460;48.734;9.152;2023-07-20T01:34:18;16.60;75.10
947;DHT22;460;48.734;9.152;2023-07-20T01:36:46;16.60;75.30
947;DHT22;460;48.734;9.152;2023-07-20T01:39:16;16.50;76.00
947;DHT22;460;48.734;9.152;2023-07-20T01:41:46;16.50;75.80
947;DHT22;460;48.734;9.152;2023-07-20T01:44:13;16.50;75.40
947;DHT22;460;48.734;9.152;2023-07-20T01:46:41;16.50;76.20
947;DHT22;460;48.734;9.152;2023-07-20T01:49:09;16.50;75.90
947;DHT22;460;48.734;9.152;2023-07-20T01:51:37;16.40;76.40
947;DHT22;460;48.734;9.152;2023-07-20T01:54:05;16.40;76.50
947;DHT22;460;48.734;9.152;2023-07-20T01:56:32;16.30;76.70
947;DHT22;460;48.734;9.152;2023-07-20T01:59:00;16.30;76.50
947;DHT22;460;48.734;9.152;2023-07-20T02:01:28;16.30;77.40
947;DHT22;460;48.734;9.152;2023-07-20T02:03:56;16.20;77.10
947;DHT22;460;48.734;9.152;2023-07-20T02:06:24;16.20;78.30
947;DHT22;460;48.734;9.152;2023-07-20T02:08:52;16.20;77.20
947;DHT22;460;48.734;9.152;2023-07-20T02:11:21;16.30;77.70
947;DHT22;460;48.734;9.152;2023-07-20T02:13:49;16.20;78.20
947;DHT22;460;48.734;9.152;2023-07-20T02:16:17;16.20;78.30
947;DHT22;460;48.734;9.152;2023-07-20T02:18:44;16.20;78.30
947;DHT22;460;48.734;9.152;2023-07-20T02:21:12;16.10;79.10
947;DHT22;460;48.734;9.152;2023-07-20T02:23:41;16.10;79.00
947;DHT22;460;48.734;9.152;2023-07-20T02:26:08;16.20;79.20
947;DHT22;460;48.734;9.152;2023-07-20T02:28:34;16.20;80.50
947;DHT22;460;48.734;9.152;2023-07-20T02:31:01;16.20;78.40
947;DHT22;460;48.734;9.152;2023-07-20T02:33:29;16.20;79.00
947;DHT22;460;48.734;9.152;2023-07-20T02:35:55;16.10;80.50
947;DHT22;460;48.734;9.152;2023-07-20T02:38:23;16.00;80.80
947;DHT22;460;48.734;9.152;2023-07-20T02:40:52;15.90;80.60
947;DHT22;460;48.734;9.152;2023-07-20T02:43:19;15.90;81.40
947;DHT22;460;48.734;9.152;2023-07-20T02:45:47;15.80;82.00
947;DHT22;460;48.734;9.152;2023-07-20T02:48:15;15.90;81.60
947;DHT22;460;48.734;9.152;2023-07-20T02:50:43;15.90;83.00
947;DHT22;460;48.734;9.152;2023-07-20T02:53:10;15.80;82.50
947;DHT22;460;48.734;9.152;2023-07-20T02:55:38;15.90;82.30
947;DHT22;460;48.734;9.152;2023-07-20T02:58:06;15.80;82.10
947;DHT22;460;48.734;9.152;2023-07-20T03:00:33;15.70;82.50
947;DHT22;460;48.734;9.152;2023-07-20T03:03:02;15.70;82.60
947;DHT22;460;48.734;9.152;2023-07-20T03:05:30;15.70;82.60
947;DHT22;460;48.734;9.152;2023-07-20T03:07:57;15.70;82.60
947;DHT22;460;48.734;9.152;2023-07-20T03:10:29;15.70;83.50
947;DHT22;460;48.734;9.152;2023-07-20T03:12:57;15.70;84.20
947;DHT22;460;48.734;9.152;2023-07-20T03:15:26;15.80;83.30
947;DHT22;460;48.734;9.152;2023-07-20T03:17:55;15.80;83.50
947;DHT22;460;48.734;9.152;2023-07-20T03:20:24;15.70;83.20
947;DHT22;460;48.734;9.152;2023-07-20T03:22:52;15.80;84.20
947;DHT22;460;48.734;9.152;2023-07-20T03:25:19;15.80;83.50
947;DHT22;460;48.734;9.152;2023-07-20T03:27:48;15.80;83.80
947;DHT22;460;48.734;9.152;2023-07-20T03:30:16;15.80;84.10
947;DHT22;460;48.734;9.152;2023-07-20T03:32:46;15.80;84.10
947;DHT22;460;48.734;9.152;2023-07-20T03:35:14;15.80;84.00
947;DHT22;460;48.734;9.152;2023-07-20T03:37:41;15.80;84.60
947;DHT22;460;48.734;9.152;2023-07-20T03:40:11;15.80;84.50
947;DHT22;460;48.734;9.152;2023-07-20T03:42:37;15.80;84.70
947;DHT22;460;48.734;9.152;2023-07-20T03:45:05;15.80;84.80
947;DHT22;460;48.734;9.152;2023-07-20T03:47:33;15.80;84.20
947;DHT22;460;48.734;9.152;2023-07-20T03:50:01;15.80;83.80
947;DHT22;460;48.734;9.152;2023-07-20T03:52:28;15.90;84.40
947;DHT22;460;48.734;9.152;2023-07-20T03:54:55;15.90;83.60
947;DHT22;460;48.734;9.152;2023-07-20T03:57:22;15.90;83.30
947;DHT22;460;48.734;9.152;2023-07-20T03:59:49;15.90;83.30
947;DHT22;460;48.734;9.152;2023-07-20T04:02:15;15.90;82.90
947;DHT22;460;48.734;9.152;2023-07-20T04:04:42;15.90;84.10
947;DHT22;460;48.734;9.152;2023-07-20T04:07:11;15.90;85.00
947;DHT22;460;48.734;9.152;2023-07-20T04:09:37;15.90;85.30
947;DHT22;460;48.734;9.152;2023-07-20T04:12:05;16.00;84.40
947;DHT22;460;48.734;9.152;2023-07-20T04:14:32;16.00;84.20
947;DHT22;460;48.734;9.152;2023-07-20T04:16:59;16.00;83.70
947;DHT22;460;48.734;9.152;2023-07-20T04:19:26;16.10;84.50
947;DHT22;460;48.734;9.152;2023-07-20T04:21:53;16.00;85.90
947;DHT22;460;48.734;9.152;2023-07-20T04:24:21;16.20;84.50
947;DHT22;460;48.734;9.152;2023-07-20T04:26:48;16.20;84.70
947;DHT22;460;48.734;9.152;2023-07-20T04:29:15;16.30;85.00
947;DHT22;460;48.734;9.152;2023-07-20T04:31:41;16.30;84.90
947;DHT22;460;48.734;9.152;2023-07-20T04:34:08;16.20;85.10
947;DHT22;460;48.734;9.152;2023-07-20T04:36:35;16.40;84.50
947;DHT22;460;48.734;9.152;2023-07-20T04:39:02;16.50;85.30
947;DHT22;460;48.734;9.152;2023-07-20T04:41:31;16.70;84.60
947;DHT22;460;48.734;9.152;2023-07-20T04:43:58;16.80;86.00
947;DHT22;460;48.734;9.152;2023-07-20T04:46:24;16.80;86.50
947;DHT22;460;48.734;9.152;2023-07-20T04:48:51;16.80;84.20
947;DHT22;460;48.734;9.152;2023-07-20T04:51:18;16.90;84.20
947;DHT22;460;48.734;9.152;2023-07-20T04:53:46;17.00;85.20
947;DHT22;460;48.734;9.152;2023-07-20T04:56:14;17.10;86.40
947;DHT22;460;48.734;9.152;2023-07-20T04:58:42;17.10;85.20
947;DHT22;460;48.734;9.152;2023-07-20T05:01:09;17.10;85.80
947;DHT22;460;48.734;9.152;2023-07-20T05:03:35;17.10;84.30
947;DHT22;460;48.734;9.152;2023-07-20T05:06:02;17.20;83.80
947;DHT22;460;48.734;9.152;2023-07-20T05:08:29;17.30;82.30
947;DHT22;460;48.734;9.152;2023-07-20T05:10:56;17.40;81.70
947;DHT22;460;48.734;9.152;2023-07-20T05:13:23;17.40;80.90
947;DHT22;460;48.734;9.152;2023-07-20T05:15:52;17.30;81.70
947;DHT22;460;48.734;9.152;2023-07-20T05:18:19;17.40;81.70
947;DHT22;460;48.734;9.152;2023-07-20T05:20:46;17.40;81.90
947;DHT22;460;48.734;9.152;2023-07-20T05:23:13;17.40;81.90
947;DHT22;460;48.734;9.152;2023-07-20T05:25:40;17.40;82.10
947;DHT22;460;48.734;9.152;2023-07-20T05:28:07;17.50;80.70
947;DHT22;460;48.734;9.152;2023-07-20T05:30:34;17.60;81.30
947;DHT22;460;48.734;9.152;2023-07-20T05:33:02;17.70;81.80
947;DHT22;460;48.734;9.152;2023-07-20T05:35:29;17.80;82.40
947;DHT22;460;48.734;9.152;2023-07-20T05:37:56;17.90;81.90
947;DHT22;460;48.734;9.152;2023-07-20T05:40:23;18.00;82.30
947;DHT22;460;48.734;9.152;2023-07-20T05:42:49;18.00;79.40
947;DHT22;460;48.734;9.152;2023-07-20T05:45:19;18.10;80.40
947;DHT22;460;48.734;9.152;2023-07-20T05:47:46;18.20;78.90
947;DHT22;460;48.734;9.152;2023-07-20T05:50:14;18.10;76.90
947;DHT22;460;48.734;9.152;2023-07-20T05:52:41;18.10;77.40
947;DHT22;460;48.734;9.152;2023-07-20T05:55:08;18.00;77.60
947;DHT22;460;48.734;9.152;2023-07-20T05:57:35;18.30;78.80
947;DHT22;460;48.734;9.152;2023-07-20T06:00:06;18.10;77.00
947;DHT22;460;48.734;9.152;2023-07-20T06:02:33;18.20;78.10
947;DHT22;460;48.734;9.152;2023-07-20T06:05:00;18.20;78.30
947;DHT22;460;48.734;9.152;2023-07-20T06:07:28;18.30;78.70
947;DHT22;460;48.734;9.152;2023-07-20T06:09:59;18.50;78.70
947;DHT22;460;48.734;9.152;2023-07-20T06:12:26;18.50;79.10
947;DHT22;460;48.734;9.152;2023-07-20T06:14:53;18.50;78.60
947;DHT22;460;48.734;9.152;2023-07-20T06:17:20;18.50;78.40
947;DHT22;460;48.734;9.152;2023-07-20T06:19:47;18.60;76.70
947;DHT22;460;48.734;9.152;2023-07-20T06:36:48;18.70;77.60
947;DHT22;460;48.734;9.152;2023-07-20T06:39:24;18.90;78.20
947;DHT22;460;48.734;9.152;2023-07-20T06:41:50;19.00;76.80
947;DHT22;460;48.734;9.152;2023-07-20T06:44:17;19.10;76.80
947;DHT22;460;48.734;9.152;2023-07-20T06:46:44;19.00;76.90
947;DHT22;460;48.734;9.152;2023-07-20T06:49:24;19.00;76.70
947;DHT22;460;48.734;9.152;2023-07-20T06:51:52;19.00;78.50
947;DHT22;460;48.734;9.152;2023-07-20T06:54:21;19.10;77.30
947;DHT22;460;48.734;9.152;2023-07-20T06:56:48;19.30;77.80
947;DHT22;460;48.734;9.152;2023-07-20T06:59:15;19.30;76.60
947;DHT22;460;48.734;9.152;2023-07-20T07:01:43;19.30;76.90
947;DHT22;460;48.734;9.152;2023-07-20T07:04:10;19.30;77.80
947;DHT22;460;48.734;9.152;2023-07-20T07:10:57;19.50;77.00
947;DHT22;460;48.734;9.152;2023-07-20T07:13:25;19.70;74.60
947;DHT22;460;48.734;9.152;2023-07-20T07:15:52;19.70;75.30
947;DHT22;460;48.734;9.152;2023-07-20T07:18:33;19.80;76.70
947;DHT22;460;48.734;9.152;2023-07-20T07:21:00;20.00;75.60
947;DHT22;460;48.734;9.152;2023-07-20T07:23:27;20.30;74.70
947;DHT22;460;48.734;9.152;2023-07-20T07:29:37;20.00;74.90
947;DHT22;460;48.734;9.152;2023-07-20T07:32:05;20.10;75.00
947;DHT22;460;48.734;9.152;2023-07-20T07:34:35;20.10;74.00
947;DHT22;460;48.734;9.152;2023-07-20T07:37:03;20.40;74.30
947;DHT22;460;48.734;9.152;2023-07-20T07:39:29;20.30;72.10
947;DHT22;460;48.734;9.152;2023-07-20T07:42:04;20.30;74.00
947;DHT22;460;48.734;9.152;2023-07-20T07:44:31;20.40;72.90
947;DHT22;460;48.734;9.152;2023-07-20T07:46:59;20.40;72.50
947;DHT22;460;48.734;9.152;2023-07-20T07:49:26;20.60;72.80
947;DHT22;460;48.734;9.152;2023-07-20T07:51:53;20.80;71.50
947;DHT22;460;48.734;9.152;2023-07-20T07:54:20;20.80;70.70
947;DHT22;460;48.734;9.152;2023-07-20T07:56:46;20.60;70.60
947;DHT22;460;48.734;9.152;2023-07-20T07:59:13;20.70;71.50
947;DHT22;460;48.734;9.152;2023-07-20T08:01:43;20.70;71.20
947;DHT22;460;48.734;9.152;2023-07-20T08:04:11;20.60;69.90
947;DHT22;460;48.734;9.152;2023-07-20T08:07:14;20.50;71.10
947;DHT22;460;48.734;9.152;2023-07-20T08:09:42;20.60;70.30
947;DHT22;460;48.734;9.152;2023-07-20T08:12:09;20.80;70.00
947;DHT22;460;48.734;9.152;2023-07-20T08:14:36;21.10;70.90
947;DHT22;460;48.734;9.152;2023-07-20T08:17:03;21.40;70.00
947;DHT22;460;48.734;9.152;2023-07-20T08:19:31;21.70;70.10
947;DHT22;460;48.734;9.152;2023-07-20T08:28:23;21.30;68.30
947;DHT22;460;48.734;9.152;2023-07-20T08:30:52;21.50;68.10
947;DHT22;460;48.734;9.152;2023-07-20T08:33:20;21.60;69.80
947;DHT22;460;48.734;9.152;2023-07-20T08:35:48;21.80;68.40
947;DHT22;460;48.734;9.152;2023-07-20T08:38:30;22.20;67.60
947;DHT22;460;48.734;9.152;2023-07-20T08:41:32;22.40;64.90
947;DHT22;460;48.734;9.152;2023-07-20T08:43:59;22.30;64.30
947;DHT22;460;48.734;9.152;2023-07-20T08:46:30;22.10;64.50
947;DHT22;460;48.734;9.152;2023-07-20T08:48:57;21.90;63.50
947;DHT22;460;48.734;9.152;2023-07-20T08:51:26;21.70;66.30
947;DHT22;460;48.734;9.152;2023-07-20T08:53:57;21.70;66.50
947;DHT22;460;48.734;9.152;2023-07-20T08:56:25;21.60;64.90
947;DHT22;460;48.734;9.152;2023-07-20T08:59:10;21.50;65.30
947;DHT22;460;48.734;9.152;2023-07-20T09:01:39;21.60;66.20
947;DHT22;460;48.734;9.152;2023-07-20T09:04:07;22.00;65.60
947;DHT22;460;48.734;9.152;2023-07-20T09:06:35;22.20;64.50
947;DHT22;460;48.734;9.152;2023-07-20T09:09:02;22.50;65.70
947;DHT22;460;48.734;9.152;2023-07-20T09:11:29;22.80;64.30
947;DHT22;460;48.734;9.152;2023-07-20T09:14:04;22.60;62.70
947;DHT22;460;48.734;9.152;2023-07-20T09:16:31;22.70;62.00
947;DHT22;460;48.734;9.152;2023-07-20T09:18:58;22.80;63.30
947;DHT22;460;48.734;9.152;2023-07-20T09:21:29;22.70;61.00
947;DHT22;460;48.734;9.152;2023-07-20T09:23:57;22.60;61.00
947;DHT22;460;48.734;9.152;2023-07-20T09:26:24;22.90;61.30
947;DHT22;460;48.734;9.152;2023-07-20T09:28:52;23.20;61.10
947;DHT22;460;48.734;9.152;2023-07-20T09:31:21;23.40;59.50
947;DHT22;460;48.734;9.152;2023-07-20T09:33:49;23.20;59.20
947;DHT22;460;48.734;9.152;2023-07-20T09:36:16;23.40;61.20
947;DHT22;460;48.734;9.152;2023-07-20T09:38:43;23.20;59.50
947;DHT22;460;48.734;9.152;2023-07-20T09:41:15;22.80;59.20
947;DHT22;460;48.734;9.152;2023-07-20T09:43:42;22.70;61.30
947;DHT22;460;48.734;9.152;2023-07-20T09:46:09;22.40;59.90
947;DHT22;460;48.734;9.152;2023-07-20T09:48:36;22.40;59.70
947;DHT22;460;48.734;9.152;2023-07-20T09:51:04;22.10;60.50
947;DHT22;460;48.734;9.152;2023-07-20T09:53:33;22.30;60.00
947;DHT22;460;48.734;9.152;2023-07-20T09:55:59;22.40;59.50
947;DHT22;460;48.734;9.152;2023-07-20T09:58:28;22.60;60.40
947;DHT22;460;48.734;9.152;2023-07-20T10:01:00;22.80;59.30
947;DHT22;460;48.734;9.152;2023-07-20T10:03:30;23.20;58.80
947;DHT22;460;48.734;9.152;2023-07-20T10:06:02;23.50;57.50
947;DHT22;460;48.734;9.152;2023-07-20T10:08:32;23.60;57.70
947;DHT22;460;48.734;9.152;2023-07-20T10:11:02;24.00;57.70
947;DHT22;460;48.734;9.152;2023-07-20T10:13:32;24.20;57.00
947;DHT22;460;48.734;9.152;2023-07-20T10:16:02;24.40;57.00
947;DHT22;460;48.734;9.152;2023-07-20T10:18:34;24.50;56.20
947;DHT22;460;48.734;9.152;2023-07-20T10:21:02;24.30;56.40
947;DHT22;460;48.734;9.152;2023-07-20T10:23:29;23.70;54.30
947;DHT22;460;48.734;9.152;2023-07-20T10:25:57;23.30;56.30
947;DHT22;460;48.734;9.152;2023-07-20T10:28:25;23.10;56.80
947;DHT22;460;48.734;9.152;2023-07-20T10:30:54;22.90;57.50
947;DHT22;460;48.734;9.152;2023-07-20T10:33:21;23.10;58.60
947;DHT22;460;48.734;9.152;2023-07-20T10:35:52;23.40;58.30
947;DHT22;460;48.734;9.152;2023-07-20T10:38:19;23.80;57.40
947;DHT22;460;48.734;9.152;2023-07-20T10:40:54;24.00;55.90
947;DHT22;460;48.734;9.152;2023-07-20T10:43:21;24.10;55.90
947;DHT22;460;48.734;9.152;2023-07-20T10:45:49;24.50;56.70
947;DHT22;460;48.734;9.152;2023-07-20T10:48:18;25.00;56.90
947;DHT22;460;48.734;9.152;2023-07-20T10:53:30;25.10;56.10
947;DHT22;460;48.734;9.152;2023-07-20T10:56:06;25.20;53.50
947;DHT22;460;48.734;9.152;2023-07-20T10:58:34;24.90;54.90
947;DHT22;460;48.734;9.152;2023-07-20T11:01:17;24.50;54.20
947;DHT22;460;48.734;9.152;2023-07-20T11:03:49;24.60;56.20
947;DHT22;460;48.734;9.152;2023-07-20T11:06:33;25.00;54.60
947;DHT22;460;48.734;9.152;2023-07-20T11:09:05;25.60;55.50
947;DHT22;460;48.734;9.152;2023-07-20T11:11:34;25.80;53.40
947;DHT22;460;48.734;9.152;2023-07-20T11:14:02;25.90;52.00
947;DHT22;460;48.734;9.152;2023-07-20T11:16:40;25.70;51.00
947;DHT22;460;48.734;9.152;2023-07-20T11:19:16;25.40;52.10
947;DHT22;460;48.734;9.152;2023-07-20T11:21:45;26.00;53.30
947;DHT22;460;48.734;9.152;2023-07-20T11:24:13;26.20;51.20
947;DHT22;460;48.734;9.152;2023-07-20T11:26:41;26.50;50.50
947;DHT22;460;48.734;9.152;2023-07-20T11:29:08;26.50;51.60
947;DHT22;460;48.734;9.152;2023-07-20T11:31:36;26.50;51.70
947;DHT22;460;48.734;9.152;2023-07-20T11:34:03;26.50;50.10
947;DHT22;460;48.734;9.152;2023-07-20T11:36:31;26.40;48.50
947;DHT22;460;48.734;9.152;2023-07-20T11:38:58;26.70;50.50
947;DHT22;460;48.734;9.152;2023-07-20T11:41:25;27.10;50.00
947;DHT22;460;48.734;9.152;2023-07-20T11:43:53;27.80;49.80
947;DHT22;460;48.734;9.152;2023-07-20T11:46:20;28.10;49.60
947;DHT22;460;48.734;9.152;2023-07-20T11:48:47;28.00;48.40
947;DHT22;460;48.734;9.152;2023-07-20T11:51:17;28.00;45.50
947;DHT22;460;48.734;9.152;2023-07-20T11:53:47;28.20;46.90
947;DHT22;460;48.734;9.152;2023-07-20T11:56:14;28.60;46.60
947;DHT22;460;48.734;9.152;2023-07-20T11:58:44;29.00;46.40
947;DHT22;460;48.734;9.152;2023-07-20T12:01:12;29.10;45.90
947;DHT22;460;48.734;9.152;2023-07-20T12:03:39;29.70;45.10
947;DHT22;460;48.734;9.152;2023-07-20T12:06:07;30.10;43.10
947;DHT22;460;48.734;9.152;2023-07-20T12:08:34;30.80;44.30
947;DHT22;460;48.734;9.152;2023-07-20T12:11:02;31.10;44.40
947;DHT22;460;48.734;9.152;2023-07-20T12:13:37;31.30;42.40
947;DHT22;460;48.734;9.152;2023-07-20T12:16:10;32.20;41.00
947;DHT22;460;48.734;9.152;2023-07-20T12:18:38;32.00;40.20
947;DHT22;460;48.734;9.152;2023-07-20T12:21:06;31.30;41.60
947;DHT22;460;48.734;9.152;2023-07-20T12:23:37;31.30;43.40
947;DHT22;460;48.734;9.152;2023-07-20T12:26:07;31.80;41.60
947;DHT22;460;48.734;9.152;2023-07-20T12:28:38;32.70;39.00
947;DHT22;460;48.734;9.152;2023-07-20T12:31:06;33.10;40.50
947;DHT22;460;48.734;9.152;2023-07-20T12:33:33;33.80;38.90
947;DHT22;460;48.734;9.152;2023-07-20T12:36:00;34.00;37.50
947;DHT22;460;48.734;9.152;2023-07-20T12:38:27;34.40;37.90
947;DHT22;460;48.734;9.152;2023-07-20T12:40:54;35.30;37.00
947;DHT22;460;48.734;9.152;2023-07-20T12:43:23;36.00;36.10
947;DHT22;460;48.734;9.152;2023-07-20T12:45:49;35.70;36.50
947;DHT22;460;48.734;9.152;2023-07-20T12:48:16;33.90;36.50
947;DHT22;460;48.734;9.152;2023-07-20T12:50:43;31.90;38.70
947;DHT22;460;48.734;9.152;2023-07-20T12:53:10;32.90;39.30
947;DHT22;460;48.734;9.152;2023-07-20T12:55:38;32.80;37.60
947;DHT22;460;48.734;9.152;2023-07-20T12:59:12;34.30;38.00
947;DHT22;460;48.734;9.152;2023-07-20T13:01:12;33.10;36.10
947;DHT22;460;48.734;9.152;2023-07-20T13:03:39;33.30;38.70
947;DHT22;460;48.734;9.152;2023-07-20T13:06:06;33.80;38.60
947;DHT22;460;48.734;9.152;2023-07-20T13:08:33;34.20;37.00
947;DHT22;460;48.734;9.152;2023-07-20T13:11:00;34.00;35.80
947;DHT22;460;48.734;9.152;2023-07-20T13:13:27;34.20;37.60
947;DHT22;460;48.734;9.152;2023-07-20T13:15:54;35.10;36.00
947;DHT22;460;48.734;9.152;2023-07-20T13:18:22;35.10;34.50
947;DHT22;460;48.734;9.152;2023-07-20T13:20:49;34.70;35.40
947;DHT22;460;48.734;9.152;2023-07-20T13:23:16;34.70;35.60
947;DHT22;460;48.734;9.152;2023-07-20T13:25:43;34.70;36.60
947;DHT22;460;48.734;9.152;2023-07-20T13:28:10;33.40;35.50
947;DHT22;460;48.734;9.152;2023-07-20T13:30:36;33.20;38.50
947;DHT22;460;48.734;9.152;2023-07-20T13:33:03;33.40;36.00
947;DHT22;460;48.734;9.152;2023-07-20T13:35:31;31.50;36.90
947;DHT22;460;48.734;9.152;2023-07-20T13:37:58;32.00;38.30
947;DHT22;460;48.734;9.152;2023-07-20T13:40:25;33.40;38.00
947;DHT22;460;48.734;9.152;2023-07-20T13:42:52;34.30;35.30
947;DHT22;460;48.734;9.152;2023-07-20T13:45:18;34.80;33.20
947;DHT22;460;48.734;9.152;2023-07-20T13:47:45;33.80;33.60
947;DHT22;460;48.734;9.152;2023-07-20T13:50:12;32.40;36.90
947;DHT22;460;48.734;9.152;2023-07-20T13:52:40;32.70;37.60
947;DHT22;460;48.734;9.152;2023-07-20T13:55:07;33.60;36.50
947;DHT22;460;48.734;9.152;2023-07-20T13:57:34;34.10;35.90
947;DHT22;460;48.734;9.152;2023-07-20T14:00:01;34.00;34.60
947;DHT22;460;48.734;9.152;2023-07-20T14:02:30;33.60;35.80
947;DHT22;460;48.734;9.152;2023-07-20T14:04:56;33.80;35.30
947;DHT22;460;48.734;9.152;2023-07-20T14:07:23;34.40;35.50
947;DHT22;460;48.734;9.152;2023-07-20T14:09:52;35.00;35.00
947;DHT22;460;48.734;9.152;2023-07-20T14:12:18;34.90;33.50
947;DHT22;460;48.734;9.152;2023-07-20T14:14:45;34.10;33.90
947;DHT22;460;48.734;9.152;2023-07-20T14:17:12;34.40;32.70
947;DHT22;460;48.734;9.152;2023-07-20T14:19:39;35.30;33.60
947;DHT22;460;48.734;9.152;2023-07-20T14:22:06;34.60;34.90
947;DHT22;460;48.734;9.152;2023-07-20T14:24:32;35.20;33.10
947;DHT22;460;48.734;9.152;2023-07-20T14:27:01;35.00;34.50
947;DHT22;460;48.734;9.152;2023-07-20T14:29:28;34.60;34.00
947;DHT22;460;48.734;9.152;2023-07-20T14:31:57;35.00;33.20
947;DHT22;460;48.734;9.152;2023-07-20T14:34:24;35.30;33.60
947;DHT22;460;48.734;9.152;2023-07-20T14:36:51;35.20;33.70
947;DHT22;460;48.734;9.152;2023-07-20T14:39:17;34.80;33.70
947;DHT22;460;48.734;9.152;2023-07-20T14:41:45;33.80;33.20
947;DHT22;460;48.734;9.152;2023-07-20T14:44:13;33.20;33.80
947;DHT22;460;48.734;9.152;2023-07-20T14:46:39;32.80;36.50
947;DHT22;460;48.734;9.152;2023-07-20T14:49:06;32.90;35.40
947;DHT22;460;48.734;9.152;2023-07-20T14:51:33;32.70;35.80
947;DHT22;460;48.734;9.152;2023-07-20T14:54:01;31.70;35.30
947;DHT22;460;48.734;9.152;2023-07-20T14:56:28;31.30;34.30
947;DHT22;460;48.734;9.152;2023-07-20T14:58:55;31.20;35.60
947;DHT22;460;48.734;9.152;2023-07-20T15:01:24;32.50;34.90
947;DHT22;460;48.734;9.152;2023-07-20T15:03:51;32.70;36.00
947;DHT22;460;48.734;9.152;2023-07-20T15:06:19;31.80;36.00
947;DHT22;460;48.734;9.152;2023-07-20T15:08:46;32.10;36.90
947;DHT22;460;48.734;9.152;2023-07-20T15:11:12;32.20;36.20
947;DHT22;460;48.734;9.152;2023-07-20T15:13:39;31.60;36.40
947;DHT22;460;48.734;9.152;2023-07-20T15:16:08;31.10;36.80
947;DHT22;460;48.734;9.152;2023-07-20T15:18:37;30.10;36.50
947;DHT22;460;48.734;9.152;2023-07-20T15:21:04;29.50;37.60
947;DHT22;460;48.734;9.152;2023-07-20T15:23:31;28.90;39.10
947;DHT22;460;48.734;9.152;2023-07-20T15:25:58;28.70;39.10
947;DHT22;460;48.734;9.152;2023-07-20T15:28:24;28.40;39.80
947;DHT22;460;48.734;9.152;2023-07-20T15:30:59;28.30;40.60
947;DHT22;460;48.734;9.152;2023-07-20T15:33:25;28.10;39.70
947;DHT22;460;48.734;9.152;2023-07-20T15:35:54;27.60;39.50
947;DHT22;460;48.734;9.152;2023-07-20T15:38:20;27.60;40.70
947;DHT22;460;48.734;9.152;2023-07-20T15:40:47;27.00;39.50
947;DHT22;460;48.734;9.152;2023-07-20T15:43:15;27.20;40.50
947;DHT22;460;48.734;9.152;2023-07-20T15:45:45;27.30;40.40
947;DHT22;460;48.734;9.152;2023-07-20T15:48:12;27.20;41.00
947;DHT22;460;48.734;9.152;2023-07-20T15:50:39;27.00;41.10
947;DHT22;460;48.734;9.152;2023-07-20T15:53:07;26.70;40.10
947;DHT22;460;48.734;9.152;2023-07-20T15:55:34;26.70;42.20
947;DHT22;460;48.734;9.152;2023-07-20T15:58:01;26.50;41.20
947;DHT22;460;48.734;9.152;2023-07-20T16:00:28;26.30;40.60
947;DHT22;460;48.734;9.152;2023-07-20T16:02:55;26.20;41.60
947;DHT22;460;48.734;9.152;2023-07-20T16:05:23;25.70;41.10
947;DHT22;460;48.734;9.152;2023-07-20T16:07:49;26.00;42.30
947;DHT22;460;48.734;9.152;2023-07-20T16:10:18;25.80;42.80
947;DHT22;460;48.734;9.152;2023-07-20T16:12:44;25.60;42.10
947;DHT22;460;48.734;9.152;2023-07-20T16:15:12;25.70;43.10
947;DHT22;460;48.734;9.152;2023-07-20T16:17:39;25.70;43.20
947;DHT22;460;48.734;9.152;2023-07-20T16:20:07;25.50;43.20
947;DHT22;460;48.734;9.152;2023-07-20T16:22:35;25.40;42.10
947;DHT22;460;48.734;9.152;2023-07-20T16:25:02;25.30;43.50
947;DHT22;460;48.734;9.152;2023-07-20T16:27:31;25.40;43.60
947;DHT22;460;48.734;9.152;2023-07-20T16:29:58;25.40;44.10
947;DHT22;460;48.734;9.152;2023-07-20T16:32:24;25.40;43.40
947;DHT22;460;48.734;9.152;2023-07-20T16:34:51;25.10;43.10
947;DHT22;460;48.734;9.152;2023-07-20T16:37:18;25.00;43.30
947;DHT22;460;48.734;9.152;2023-07-20T16:39:45;25.00;43.50
947;DHT22;460;48.734;9.152;2023-07-20T16:42:11;24.90;43.30
947;DHT22;460;48.734;9.152;2023-07-20T16:44:40;24.90;42.90
947;DHT22;460;48.734;9.152;2023-07-20T16:47:07;24.60;41.90
947;DHT22;460;48.734;9.152;2023-07-20T16:49:34;24.50;43.00
947;DHT22;460;48.734;9.152;2023-07-20T16:52:01;24.50;42.90
947;DHT22;460;48.734;9.152;2023-07-20T16:54:27;24.50;42.40
947;DHT22;460;48.734;9.152;2023-07-20T16:56:54;24.50;43.30
947;DHT22;460;48.734;9.152;2023-07-20T16:59:21;24.40;43.80
947;DHT22;460;48.734;9.152;2023-07-20T17:01:50;24.10;42.50
947;DHT22;460;48.734;9.152;2023-07-20T17:04:18;24.00;43.20
947;DHT22;460;48.734;9.152;2023-07-20T17:06:45;24.00;44.80
947;DHT22;460;48.734;9.152;2023-07-20T17:09:12;23.80;43.20
947;DHT22;460;48.734;9.152;2023-07-20T17:11:40;23.80;44.10
947;DHT22;460;48.734;9.152;2023-07-20T17:14:07;23.90;43.90